TimeCDT,TemperatureF,Dew PointF,Humidity,Sea Level PressureIn,VisibilityMPH,Wind Direction,Wind SpeedMPH,Gust SpeedMPH,PrecipitationIn,Events,Conditions,WindDirDegrees,DateUTC
12:15 AM,51.1,51.1,100,30.02,0.2,Calm,Calm,-,N/A,Fog,Fog,0,2013-07-09 05:15:00
12:35 AM,51.1,51.1,100,30.01,0.2,Calm,Calm,-,N/A,Fog,Fog,0,2013-07-09 05:35:00
12:55 AM,51.3,51.3,100,30.01,0.2,Calm,Calm,-,N/A,Fog,Fog,0,2013-07-09 05:55:00
1:15 AM,51.8,51.8,100,30.01,0.2,Calm,Calm,-,N/A,Fog,Fog,0,2013-07-09 06:15:00
1:35 AM,52.2,52.2,100,30.00,0.2,Calm,Calm,-,N/A,Fog,Fog,0,2013-07-09 06:35:00
1:55 AM,52.2,52.2,100,29.99,0.2,Calm,Calm,-,N/A,Fog,Fog,0,2013-07-09 06:55:00
2:15 AM,52.0,52.0,100,29.99,0.5,ENE,4.6,-,N/A,Fog,Fog,70,2013-07-09 07:15:00
2:35 AM,51.8,51.8,100,29.99,0.8,East,3.5,-,N/A,,Overcast,80,2013-07-09 07:35:00
2:55 AM,51.4,51.4,100,29.98,0.8,Calm,Calm,-,N/A,,Overcast,0,2013-07-09 07:55:00
3:15 AM,51.6,51.6,100,29.98,0.5,Calm,Calm,-,N/A,Fog,Fog,0,2013-07-09 08:15:00
3:35 AM,51.8,51.8,100,29.97,1.0,NE,3.5,-,N/A,,Overcast,50,2013-07-09 08:35:00
3:55 AM,51.8,51.8,100,29.97,1.0,ENE,3.5,-,N/A,,Overcast,60,2013-07-09 08:55:00
4:15 AM,51.3,51.3,100,29.96,1.8,NE,3.5,-,N/A,,Overcast,50,2013-07-09 09:15:00
4:35 AM,50.9,50.9,100,29.96,0.8,NNE,4.6,-,N/A,,Overcast,30,2013-07-09 09:35:00
4:55 AM,50.9,50.9,100,29.95,0.5,NE,3.5,-,N/A,Fog,Fog,40,2013-07-09 09:55:00
5:15 AM,50.4,50.4,100,29.95,0.2,NE,3.5,-,N/A,Fog,Fog,40,2013-07-09 10:15:00
5:35 AM,50.4,50.4,100,29.95,0.2,Calm,Calm,-,N/A,Fog,Fog,0,2013-07-09 10:35:00
5:55 AM,50.5,50.5,100,29.94,0.2,Calm,Calm,-,N/A,Fog,Fog,0,2013-07-09 10:55:00
6:15 AM,50.9,50.9,100,29.94,0.2,ENE,3.5,-,N/A,Fog,Fog,70,2013-07-09 11:15:00
6:35 AM,50.9,50.9,100,29.93,0.2,Calm,Calm,-,N/A,Fog,Fog,0,2013-07-09 11:35:00
6:55 AM,51.3,51.3,100,29.91,0.2,NE,4.6,-,N/A,Fog,Fog,50,2013-07-09 11:55:00
7:15 AM,51.6,51.6,100,29.91,1.5,NE,4.6,-,N/A,,Overcast,40,2013-07-09 12:15:00
7:35 AM,51.8,51.8,100,29.91,2.0,ENE,4.6,-,N/A,,Overcast,70,2013-07-09 12:35:00
7:55 AM,52.0,52.0,100,29.90,0.5,ENE,6.9,-,N/A,Fog,Fog,60,2013-07-09 12:55:00
8:15 AM,51.8,51.8,100,29.89,0.5,ENE,6.9,-,N/A,Fog,Fog,70,2013-07-09 13:15:00
8:35 AM,51.8,51.8,100,29.88,0.8,ENE,5.8,-,N/A,,Overcast,60,2013-07-09 13:35:00
8:55 AM,51.4,51.4,100,29.87,3.0,ENE,8.1,-,N/A,,Overcast,60,2013-07-09 13:55:00
9:15 AM,50.9,50.9,100,29.87,0.8,NE,4.6,-,N/A,,Overcast,50,2013-07-09 14:15:00
9:35 AM,50.9,50.9,100,29.87,1.0,NE,5.8,-,N/A,,Overcast,50,2013-07-09 14:35:00
9:55 AM,50.4,50.4,100,29.87,1.2,NE,4.6,-,N/A,,Overcast,50,2013-07-09 14:55:00
10:15 AM,50.2,50.2,100,29.87,0.5,ENE,4.6,-,N/A,Rain,Light Rain,60,2013-07-09 15:15:00
10:35 AM,50.4,50.4,100,29.85,0.5,NE,6.9,-,N/A,Rain,Light Rain,40,2013-07-09 15:35:00
10:55 AM,50.9,50.9,100,29.85,0.2,ENE,5.8,-,0.01,Rain,Light Rain,60,2013-07-09 15:55:00
11:15 AM,50.9,50.9,100,29.86,0.8,NE,5.8,-,0.02,Rain,Rain,50,2013-07-09 16:15:00
11:35 AM,51.4,51.4,100,29.86,3.0,NNE,5.8,-,0.08,Rain,Rain,30,2013-07-09 16:35:00
11:55 AM,52.7,52.7,100,29.83,7.0,ENE,9.2,-,0.10,Rain,Light Rain,70,2013-07-09 16:55:00
12:15 PM,52.9,52.9,100,29.84,10.0,ENE,6.9,-,0.01,Rain,Light Rain,70,2013-07-09 17:15:00
12:35 PM,54.3,54.3,100,29.84,10.0,East,6.9,-,0.01,Rain,Light Rain,80,2013-07-09 17:35:00
12:55 PM,54.1,54.0,99,29.84,5.0,NE,6.9,-,0.02,Rain,Light Rain,50,2013-07-09 17:55:00
1:15 PM,54.3,54.0,99,29.83,10.0,East,6.9,-,N/A,,Light Drizzle,80,2013-07-09 18:15:00
1:35 PM,54.5,54.3,99,29.82,10.0,NE,6.9,-,0.01,,Light Drizzle,50,2013-07-09 18:35:00
1:55 PM,54.3,53.8,98,29.82,10.0,ENE,6.9,-,0.01,,Overcast,60,2013-07-09 18:55:00
2:15 PM,54.7,54.3,99,29.81,10.0,ENE,8.1,-,N/A,,Overcast,60,2013-07-09 19:15:00
2:35 PM,55.4,55.0,99,29.82,4.0,East,5.8,-,N/A,,Overcast,90,2013-07-09 19:35:00
2:55 PM,55.8,55.0,97,29.81,5.0,ENE,4.6,-,N/A,,Overcast,70,2013-07-09 19:55:00
3:15 PM,56.3,55.4,97,29.82,10.0,NE,8.1,-,N/A,,Overcast,40,2013-07-09 20:15:00
3:35 PM,55.4,54.5,97,29.82,10.0,ENE,4.6,-,N/A,,Overcast,70,2013-07-09 20:35:00
3:55 PM,56.3,54.7,94,29.81,10.0,NE,3.5,-,N/A,,Overcast,50,2013-07-09 20:55:00
4:15 PM,56.3,54.7,94,29.81,10.0,NE,3.5,-,N/A,,Overcast,40,2013-07-09 21:15:00
4:35 PM,56.7,54.7,93,29.81,10.0,NE,4.6,-,N/A,,Overcast,50,2013-07-09 21:35:00
4:55 PM,57.2,55.0,92,29.81,10.0,Calm,Calm,-,N/A,,Overcast,0,2013-07-09 21:55:00
5:15 PM,57.2,54.9,92,29.81,10.0,Calm,Calm,-,N/A,,Overcast,0,2013-07-09 22:15:00
5:35 PM,59.2,56.1,90,29.81,10.0,Calm,Calm,-,N/A,,Overcast,0,2013-07-09 22:35:00
5:55 PM,59.9,56.5,88,29.80,10.0,Calm,Calm,-,N/A,,Overcast,0,2013-07-09 22:55:00
6:15 PM,61.0,57.4,88,29.80,10.0,Calm,Calm,-,N/A,,Overcast,0,2013-07-09 23:15:00
6:35 PM,62.2,58.1,86,29.79,10.0,Calm,Calm,-,N/A,,Mostly Cloudy,0,2013-07-09 23:35:00
6:55 PM,61.2,58.3,90,29.80,10.0,Calm,Calm,-,N/A,,Mostly Cloudy,0,2013-07-09 23:55:00
7:15 PM,60.8,57.6,89,29.80,10.0,Calm,Calm,-,N/A,,Mostly Cloudy,0,2013-07-10 00:15:00
7:35 PM,60.1,56.7,88,29.80,10.0,Calm,Calm,-,N/A,,Scattered Clouds,0,2013-07-10 00:35:00
7:55 PM,60.1,56.7,88,29.80,10.0,Calm,Calm,-,N/A,,Scattered Clouds,0,2013-07-10 00:55:00
8:15 PM,60.4,57.2,89,29.80,10.0,Calm,Calm,-,N/A,,Clear,0,2013-07-10 01:15:00
8:35 PM,59.5,57.4,93,29.81,10.0,Calm,Calm,-,N/A,,Mostly Cloudy,0,2013-07-10 01:35:00
8:55 PM,59.4,57.4,93,29.81,10.0,Calm,Calm,-,N/A,,Overcast,0,2013-07-10 01:55:00
9:15 PM,57.4,56.3,96,29.82,10.0,South,3.5,-,N/A,,Scattered Clouds,180,2013-07-10 02:15:00
9:35 PM,57.0,56.3,97,29.84,10.0,SSW,4.6,-,N/A,,Clear,210,2013-07-10 02:35:00
9:55 PM,57.0,56.5,98,29.84,10.0,SW,4.6,-,N/A,,Scattered Clouds,220,2013-07-10 02:55:00
10:15 PM,57.2,56.5,97,29.84,10.0,WNW,8.1,-,N/A,,Clear,300,2013-07-10 03:15:00
10:35 PM,65.5,61.7,88,29.85,10.0,NW,9.2,-,N/A,,Mostly Cloudy,320,2013-07-10 03:35:00
10:55 PM,66.2,61.7,85,29.85,10.0,NW,8.1,-,N/A,,Mostly Cloudy,310,2013-07-10 03:55:00
11:15 PM,65.3,61.3,87,29.86,10.0,NW,10.4,-,N/A,,Scattered Clouds,310,2013-07-10 04:15:00
11:35 PM,65.5,59.5,81,29.87,10.0,NNW,10.4,16.1,N/A,,Scattered Clouds,330,2013-07-10 04:35:00
11:55 PM,65.1,57.7,77,29.88,10.0,WNW,8.1,16.1,N/A,,Mostly Cloudy,300,2013-07-10 04:55:00